createdAt,value
2022-09-11T00:02:50.161Z,13.68
2022-09-11T00:06:51.887Z,12.15
2022-09-11T00:10:53.579Z,12.45
2022-09-11T00:14:55.235Z,12.52
2022-09-11T00:18:59.761Z,12.70
2022-09-11T00:23:04.982Z,12.77
2022-09-11T00:27:06.709Z,12.80
2022-09-11T00:31:12.471Z,13.77
2022-09-11T00:35:14.199Z,13.32
2022-09-11T00:39:15.808Z,14.50
2022-09-11T00:43:18.127Z,13.60
2022-09-11T00:47:20.085Z,12.50
2022-09-11T00:51:25.908Z,13.10
2022-09-11T00:55:32.394Z,14.68
2022-09-11T00:59:34.766Z,13.47
2022-09-11T01:03:36.786Z,13.50
2022-09-11T01:07:40.067Z,14.32
2022-09-11T01:11:56.147Z,15.52
2022-09-11T01:16:15.953Z,15.38
2022-09-11T01:20:36.428Z,16.27
2022-09-11T01:25:02.023Z,16.12
2022-09-11T01:29:15.975Z,14.85
2022-09-11T01:33:29.335Z,15.98
2022-09-11T01:37:51.191Z,14.75
2022-09-11T01:42:00.069Z,14.35
2022-09-11T01:46:06.377Z,13.98
2022-09-11T01:50:13.992Z,13.68
2022-09-11T01:54:19.735Z,14.45
2022-09-11T01:58:28.767Z,14.85
2022-09-11T02:02:36.327Z,15.18
2022-09-11T02:06:47.455Z,15.80
2022-09-11T02:10:55.176Z,16.70
2022-09-11T02:14:57.290Z,16.98
2022-09-11T02:19:10.175Z,21.52
2022-09-11T02:23:11.837Z,23.85
2022-09-11T02:27:18.761Z,21.62
2022-09-11T02:31:21.561Z,26.25
2022-09-11T02:35:29.557Z,26.95
2022-09-11T02:39:36.778Z,25.08
2022-09-11T02:44:08.408Z,29.30
2022-09-11T02:48:22.814Z,29.25
2022-09-11T02:52:30.357Z,32.15
2022-09-11T02:56:46.703Z,31.15
2022-09-11T03:00:48.601Z,32.67
2022-09-11T03:04:50.313Z,32.05
2022-09-11T03:08:51.941Z,38.40
2022-09-11T03:12:55.085Z,37.22
2022-09-11T03:16:57.043Z,35.83
2022-09-11T03:20:58.685Z,37.33
2022-09-11T03:25:00.363Z,38.38
2022-09-11T03:29:03.028Z,38.22
2022-09-11T03:33:04.991Z,36.08
2022-09-11T03:37:06.636Z,38.00
2022-09-11T03:41:09.456Z,42.25
2022-09-11T03:45:11.892Z,43.90
2022-09-11T03:49:13.922Z,42.72
2022-09-11T03:53:16.805Z,41.65
2022-09-11T03:57:18.482Z,43.58
2022-09-11T04:01:20.123Z,47.03
2022-09-11T04:05:25.214Z,45.83
2022-09-11T04:09:27.464Z,46.92
2022-09-11T04:13:31.059Z,48.75
2022-09-11T04:17:32.748Z,46.67
2022-09-11T04:21:34.680Z,44.85
2022-09-11T04:25:36.349Z,55.45
2022-09-11T04:29:38.102Z,51.75
2022-09-11T04:33:39.817Z,56.03
2022-09-11T04:37:41.463Z,54.80
2022-09-11T04:41:44.316Z,57.15
2022-09-11T04:45:45.960Z,59.85
2022-09-11T04:49:48.546Z,60.55
2022-09-11T04:53:57.497Z,63.35
2022-09-11T04:57:59.103Z,59.45
2022-09-11T05:02:00.754Z,61.97
2022-09-11T05:06:06.860Z,61.30
2022-09-11T05:10:08.794Z,62.88
2022-09-11T05:14:11.603Z,65.65
2022-09-11T05:18:13.266Z,65.22
2022-09-11T05:22:15.751Z,66.68
2022-09-11T05:26:21.567Z,64.20
2022-09-11T05:30:23.318Z,64.18
2022-09-11T05:34:28.616Z,66.85
2022-09-11T05:38:30.444Z,65.55
2022-09-11T05:42:32.038Z,70.03
2022-09-11T05:46:33.902Z,65.62
2022-09-11T05:50:35.823Z,66.65
2022-09-11T05:54:37.468Z,67.68
2022-09-11T05:58:39.805Z,64.05
2022-09-11T06:02:41.391Z,65.35
2022-09-11T06:06:43.656Z,63.25
2022-09-11T06:10:46.613Z,65.28
2022-09-11T06:14:48.281Z,67.45
2022-09-11T06:18:51.607Z,63.67
2022-09-11T06:22:54.847Z,66.12
2022-09-11T06:26:56.527Z,68.00
2022-09-11T06:30:58.158Z,67.43
2022-09-11T06:34:59.845Z,66.37
2022-09-11T06:39:02.191Z,67.20
2022-09-11T06:43:04.674Z,65.18
2022-09-11T06:47:06.407Z,65.95
2022-09-11T06:51:11.278Z,64.07
2022-09-11T06:55:14.392Z,61.65
2022-09-11T06:59:16.023Z,63.35
2022-09-11T07:03:17.632Z,62.58
2022-09-11T07:07:19.251Z,61.50
2022-09-11T07:11:21.026Z,58.92
2022-09-11T07:15:22.703Z,59.63
2022-09-11T07:19:27.537Z,60.20
2022-09-11T07:23:29.173Z,59.50
2022-09-11T07:27:31.430Z,61.97
2022-09-11T07:31:34.323Z,58.67
2022-09-11T07:35:39.130Z,60.67
2022-09-11T07:39:40.823Z,56.83
2022-09-11T07:43:45.408Z,57.75
2022-09-11T07:47:47.032Z,56.63
2022-09-11T07:51:48.651Z,55.88
2022-09-11T07:55:50.316Z,57.25
2022-09-11T07:59:52.047Z,53.60
2022-09-11T08:03:58.858Z,56.35
2022-09-11T08:08:00.494Z,55.70
2022-09-11T08:12:02.876Z,59.10
2022-09-11T08:16:05.258Z,62.85
2022-09-11T08:20:07.485Z,61.97
2022-09-11T08:24:11.431Z,60.05
2022-09-11T08:28:13.238Z,60.60
2022-09-11T08:32:14.895Z,62.47
2022-09-11T08:36:17.133Z,62.60
2022-09-11T08:40:19.009Z,64.25
2022-09-11T08:44:30.935Z,63.08
2022-09-11T08:48:56.245Z,62.83
2022-09-11T08:53:02.137Z,60.00
2022-09-11T08:57:16.587Z,60.00
2022-09-11T09:01:28.945Z,59.80
2022-09-11T09:05:57.335Z,57.88
2022-09-11T09:10:21.132Z,60.03
2022-09-11T09:14:54.926Z,57.38
2022-09-11T09:19:03.975Z,57.58
2022-09-11T09:23:19.334Z,57.78
2022-09-11T09:27:30.387Z,55.90
2022-09-11T09:31:33.651Z,56.20
2022-09-11T09:35:43.616Z,55.78
2022-09-11T09:39:45.770Z,55.80
2022-09-11T09:43:53.413Z,54.72
2022-09-11T09:47:55.011Z,53.45
2022-09-11T09:52:03.531Z,52.62
2022-09-11T09:56:06.432Z,50.33
2022-09-11T10:00:11.714Z,52.38
2022-09-11T10:04:21.122Z,49.72
2022-09-11T10:08:37.839Z,50.97
2022-09-11T10:12:45.435Z,48.20
2022-09-11T10:16:50.692Z,47.25
2022-09-11T10:20:52.303Z,45.67
2022-09-11T10:25:05.049Z,50.92
2022-09-11T10:29:13.978Z,46.83
2022-09-11T10:33:21.501Z,44.45
2022-09-11T10:37:29.971Z,41.72
2022-09-11T10:41:34.827Z,43.85
2022-09-11T10:45:36.501Z,45.28
2022-09-11T10:49:38.204Z,44.17
2022-09-11T10:54:13.111Z,41.30
2022-09-11T10:58:22.180Z,42.05
2022-09-11T11:02:31.703Z,44.47
2022-09-11T11:06:49.504Z,49.78
2022-09-11T11:10:55.971Z,49.38
2022-09-11T11:15:49.543Z,51.88
2022-09-11T11:20:31.911Z,52.80
2022-09-11T11:25:03.676Z,50.58
2022-09-11T11:29:33.598Z,49.63
2022-09-11T11:34:02.475Z,49.47
2022-09-11T11:38:31.625Z,50.12
2022-09-11T11:42:42.979Z,40.88
2022-09-11T11:46:52.234Z,42.38
2022-09-11T11:50:58.323Z,44.78
2022-09-11T11:55:23.080Z,44.30
2022-09-11T11:59:36.761Z,37.65
2022-09-11T12:03:48.592Z,37.10
2022-09-11T12:07:50.872Z,37.75
2022-09-11T12:11:55.138Z,35.30
2022-09-11T12:16:02.799Z,32.47
2022-09-11T12:20:10.667Z,35.05
2022-09-11T12:24:14.210Z,34.70
2022-09-11T12:28:21.827Z,32.22
2022-09-11T12:32:39.572Z,28.30
2022-09-11T12:36:56.742Z,27.58
2022-09-11T12:41:07.389Z,24.33
2022-09-11T12:45:34.405Z,24.10
2022-09-11T12:49:37.585Z,60.83
2022-09-11T12:53:47.251Z,42.62
2022-09-11T12:57:51.939Z,23.12
2022-09-11T13:01:54.074Z,21.30
2022-09-11T13:06:00.542Z,25.02
2022-09-11T13:10:09.139Z,22.52
2022-09-11T13:14:31.043Z,19.75
2022-09-11T13:18:35.382Z,23.60
2022-09-11T13:22:38.426Z,25.83
2022-09-11T13:26:42.009Z,23.85
2022-09-11T13:31:00.380Z,20.52
2022-09-11T13:35:10.859Z,21.00
2022-09-11T13:39:15.278Z,20.80
2022-09-11T13:43:22.011Z,19.20
2022-09-11T13:47:26.390Z,19.85
2022-09-11T13:51:31.731Z,18.70
2022-09-11T13:55:33.452Z,17.27
2022-09-11T13:59:38.262Z,16.75
2022-09-11T14:03:45.887Z,17.27
2022-09-11T14:08:00.788Z,17.23
2022-09-11T14:12:03.406Z,15.43
2022-09-11T14:16:09.923Z,15.05
2022-09-11T14:20:19.988Z,14.35
2022-09-11T14:24:36.191Z,12.85
2022-09-11T14:28:55.674Z,14.95
2022-09-11T14:33:24.280Z,14.90
2022-09-11T14:37:28.869Z,13.70
2022-09-11T14:41:30.634Z,13.70
2022-09-11T14:45:32.295Z,13.15
2022-09-11T14:49:33.948Z,14.07
2022-09-11T14:53:36.076Z,14.13
2022-09-11T14:57:37.715Z,14.10
2022-09-11T15:01:39.453Z,15.15
2022-09-11T15:05:43.679Z,15.05
2022-09-11T15:09:45.706Z,14.50
2022-09-11T15:14:04.334Z,13.48
2022-09-11T15:18:09.752Z,13.57
2022-09-11T15:22:11.812Z,13.35
2022-09-11T15:26:14.885Z,14.50
2022-09-11T15:30:17.254Z,14.20
2022-09-11T15:34:20.144Z,13.70
2022-09-11T15:38:22.876Z,12.02
2022-09-11T15:42:25.123Z,13.15
2022-09-11T15:46:26.843Z,12.00
2022-09-11T15:50:30.020Z,12.32
2022-09-11T15:54:31.663Z,12.18
2022-09-11T15:58:37.171Z,12.05
2022-09-11T16:02:38.827Z,11.15
2022-09-11T16:06:42.841Z,10.75
2022-09-11T16:10:44.525Z,10.50
2022-09-11T16:14:46.526Z,12.88
2022-09-11T16:18:48.122Z,10.50
2022-09-11T16:22:50.658Z,11.20
2022-09-11T16:26:56.388Z,11.82
2022-09-11T16:30:58.135Z,11.70
2022-09-11T16:34:59.969Z,11.43
2022-09-11T16:39:01.685Z,14.38
2022-09-11T16:43:07.734Z,11.63
2022-09-11T16:47:09.686Z,10.95
2022-09-11T16:51:12.990Z,11.32
2022-09-11T16:55:15.204Z,10.55
2022-09-11T16:59:16.866Z,11.12
2022-09-11T17:03:18.911Z,10.55
2022-09-11T17:07:20.730Z,11.50
2022-09-11T17:11:22.629Z,10.98
2022-09-11T17:15:25.275Z,10.05
2022-09-11T17:19:26.866Z,11.12
2022-09-11T17:23:28.719Z,11.60
2022-09-11T17:27:31.061Z,12.07
2022-09-11T17:31:32.806Z,12.05
2022-09-11T17:35:34.984Z,11.93
2022-09-11T17:39:36.666Z,18.00
2022-09-11T17:43:39.354Z,11.88
2022-09-11T17:47:42.527Z,12.95
2022-09-11T17:51:44.114Z,13.25
2022-09-11T17:55:47.153Z,12.52
2022-09-11T17:59:51.715Z,13.13
2022-09-11T18:03:55.383Z,14.40
2022-09-11T18:07:59.947Z,13.73
2022-09-11T18:12:03.455Z,14.05
2022-09-11T18:16:09.601Z,14.55
2022-09-11T18:20:14.700Z,15.02
2022-09-11T18:24:19.869Z,15.00
2022-09-11T18:28:21.728Z,20.90
2022-09-11T18:32:23.364Z,15.15
2022-09-11T18:36:26.469Z,14.77
2022-09-11T18:40:28.750Z,15.50
2022-09-11T18:44:30.326Z,15.27
2022-09-11T18:48:31.950Z,14.23
2022-09-11T18:52:33.678Z,15.23
2022-09-11T18:56:36.224Z,16.17
2022-09-11T19:00:38.515Z,16.52
2022-09-11T19:04:40.289Z,16.20
2022-09-11T19:08:44.876Z,15.75
2022-09-11T19:12:48.138Z,17.15
2022-09-11T19:16:49.799Z,16.95
2022-09-11T19:21:01.908Z,16.92
2022-09-11T19:25:04.298Z,17.48
2022-09-11T19:29:08.628Z,18.00
2022-09-11T19:33:10.327Z,24.05
2022-09-11T19:37:13.558Z,17.95
2022-09-11T19:41:22.972Z,18.37
2022-09-11T19:45:24.598Z,18.40
2022-09-11T19:49:26.236Z,18.62
2022-09-11T19:53:28.328Z,18.83
2022-09-11T19:57:30.955Z,19.75
2022-09-11T20:01:32.605Z,18.92
2022-09-11T20:05:34.227Z,19.23
2022-09-11T20:09:35.910Z,18.75
2022-09-11T20:13:38.211Z,21.17
2022-09-11T20:17:41.021Z,21.92
2022-09-11T20:21:43.266Z,22.95
2022-09-11T20:25:44.907Z,21.35
2022-09-11T20:29:46.522Z,19.40
2022-09-11T20:33:51.710Z,19.48
2022-09-11T20:37:53.848Z,20.25
2022-09-11T20:41:55.487Z,20.15
2022-09-11T20:45:57.108Z,19.40
2022-09-11T20:50:00.521Z,18.83
2022-09-11T20:54:03.530Z,20.77
2022-09-11T20:58:06.149Z,21.52
2022-09-11T21:02:09.249Z,21.98
2022-09-11T21:06:10.992Z,22.00
2022-09-11T21:10:12.623Z,20.98
2022-09-11T21:14:16.210Z,20.15
2022-09-11T21:18:17.851Z,20.95
2022-09-11T21:22:19.691Z,21.45
2022-09-11T21:26:21.711Z,21.83
2022-09-11T21:30:23.536Z,22.33
2022-09-11T21:34:25.231Z,23.55
2022-09-11T21:38:29.372Z,24.90
2022-09-11T21:42:31.138Z,24.37
2022-09-11T21:46:34.380Z,23.90
2022-09-11T21:50:37.277Z,26.15
2022-09-11T21:54:39.061Z,23.83
2022-09-11T21:58:40.770Z,24.15
2022-09-11T22:02:42.387Z,24.08
2022-09-11T22:06:43.987Z,25.77
2022-09-11T22:10:48.124Z,25.20
2022-09-11T22:14:50.988Z,23.98
2022-09-11T22:18:54.576Z,23.67
2022-09-11T22:22:58.624Z,25.35
2022-09-11T22:27:00.330Z,25.37
2022-09-11T22:31:10.459Z,26.75
2022-09-11T22:35:14.890Z,25.25
2022-09-11T22:39:16.576Z,23.98
2022-09-11T22:43:18.205Z,24.48
2022-09-11T22:47:19.883Z,22.85
2022-09-11T22:51:21.805Z,24.00
2022-09-11T22:55:23.451Z,23.95
2022-09-11T22:59:25.110Z,22.05
2022-09-11T23:03:27.133Z,22.98
2022-09-11T23:07:29.117Z,23.67
2022-09-11T23:11:30.768Z,24.75
2022-09-11T23:15:32.394Z,25.88
2022-09-11T23:19:34.432Z,23.05
2022-09-11T23:23:40.863Z,25.05
2022-09-11T23:27:44.413Z,25.40
2022-09-11T23:31:46.185Z,25.48
2022-09-11T23:35:47.816Z,24.90
2022-09-11T23:39:49.638Z,26.27
2022-09-11T23:43:51.848Z,28.98
2022-09-11T23:47:53.475Z,27.62
2022-09-11T23:51:55.129Z,26.98
2022-09-11T23:55:57.441Z,25.60
2022-09-11T23:59:59.072Z,23.60
